createdAt,value
2023-09-13T00:02:25.261Z,7.07
2023-09-13T00:04:51.992Z,7.32
2023-09-13T00:07:19.558Z,6.78
2023-09-13T00:09:46.272Z,7.20
2023-09-13T00:12:13.358Z,7.07
2023-09-13T00:14:39.933Z,6.90
2023-09-13T00:17:06.534Z,7.50
2023-09-13T00:19:33.147Z,7.60
2023-09-13T00:21:59.803Z,7.63
2023-09-13T00:24:26.489Z,8.00
2023-09-13T00:26:53.135Z,7.97
2023-09-13T00:29:19.763Z,8.50
2023-09-13T00:31:46.885Z,8.48
2023-09-13T00:34:14.042Z,8.25
2023-09-13T00:36:41.468Z,7.80
2023-09-13T00:39:08.271Z,8.27
2023-09-13T00:41:34.923Z,8.15
2023-09-13T00:44:01.659Z,8.35
2023-09-13T00:46:29.280Z,8.00
2023-09-13T00:48:57.073Z,8.20
2023-09-13T00:51:23.919Z,8.38
2023-09-13T00:53:50.656Z,8.63
2023-09-13T00:56:18.275Z,8.52
2023-09-13T00:58:45.785Z,8.98
2023-09-13T01:01:14.380Z,8.23
2023-09-13T01:03:43.926Z,9.20
2023-09-13T01:06:12.437Z,9.30
2023-09-13T01:08:43.887Z,8.90
2023-09-13T01:11:10.511Z,8.60
2023-09-13T01:13:37.163Z,8.98
2023-09-13T01:16:15.729Z,8.93
2023-09-13T01:19:00.550Z,8.75
2023-09-13T01:21:41.376Z,8.98
2023-09-13T01:24:21.276Z,9.50
2023-09-13T01:27:08.116Z,8.48
2023-09-13T01:29:36.003Z,9.38
2023-09-13T01:32:03.519Z,8.40
2023-09-13T01:34:30.314Z,8.48
2023-09-13T01:36:57.746Z,8.73
2023-09-13T01:39:24.609Z,7.80
2023-09-13T01:41:57.713Z,7.78
2023-09-13T01:44:25.194Z,7.70
2023-09-13T01:46:53.528Z,6.93
2023-09-13T01:49:21.960Z,7.45
2023-09-13T01:51:50.114Z,7.18
2023-09-13T01:54:20.189Z,6.97
2023-09-13T01:56:46.742Z,7.43
2023-09-13T01:59:13.359Z,7.28
2023-09-13T02:01:40.058Z,6.93
2023-09-13T02:04:07.219Z,7.30
2023-09-13T02:06:33.798Z,7.22
2023-09-13T02:09:00.565Z,7.15
2023-09-13T02:11:27.114Z,6.75
2023-09-13T02:13:53.710Z,6.95
2023-09-13T02:16:23.673Z,6.60
2023-09-13T02:18:50.389Z,6.20
2023-09-13T02:21:17.712Z,7.20
2023-09-13T02:23:44.716Z,6.38
2023-09-13T02:26:21.347Z,7.35
2023-09-13T02:28:48.252Z,6.88
2023-09-13T02:31:22.089Z,7.18
2023-09-13T02:33:48.714Z,6.75
2023-09-13T02:36:15.308Z,7.65
2023-09-13T02:38:42.001Z,6.30
2023-09-13T02:41:08.657Z,6.85
2023-09-13T02:43:35.198Z,6.22
2023-09-13T02:46:01.819Z,5.47
2023-09-13T02:48:28.428Z,5.78
2023-09-13T02:50:54.993Z,6.38
2023-09-13T02:53:21.641Z,6.57
2023-09-13T02:55:48.239Z,6.10
2023-09-13T02:58:15.148Z,6.53
2023-09-13T03:00:45.087Z,6.47
2023-09-13T03:03:11.813Z,6.57
2023-09-13T03:05:38.419Z,6.18
2023-09-13T03:08:05.650Z,6.65
2023-09-13T03:10:34.310Z,7.00
2023-09-13T03:13:00.995Z,6.80
2023-09-13T03:15:27.601Z,6.80
2023-09-13T03:17:54.300Z,6.88
2023-09-13T03:20:20.889Z,7.60
2023-09-13T03:22:47.473Z,7.65
2023-09-13T03:25:14.114Z,7.28
2023-09-13T03:27:40.746Z,7.38
2023-09-13T03:30:07.750Z,7.50
2023-09-13T03:32:34.405Z,7.35
2023-09-13T03:35:01.072Z,6.63
2023-09-13T03:37:27.746Z,7.70
2023-09-13T03:39:54.327Z,7.60
2023-09-13T03:42:21.195Z,7.93
2023-09-13T03:44:48.125Z,8.20
2023-09-13T03:47:15.273Z,8.07
2023-09-13T03:49:41.911Z,7.88
2023-09-13T03:52:08.513Z,7.97
2023-09-13T03:54:35.167Z,7.90
2023-09-13T03:57:01.761Z,7.88
2023-09-13T03:59:28.362Z,7.63
2023-09-13T04:01:56.385Z,7.25
2023-09-13T04:04:25.284Z,7.15
2023-09-13T04:06:52.083Z,7.45
2023-09-13T04:09:19.255Z,7.20
2023-09-13T04:11:45.852Z,6.97
2023-09-13T04:14:12.619Z,6.80
2023-09-13T04:16:39.341Z,7.10
2023-09-13T04:19:06.064Z,7.40
2023-09-13T04:21:32.624Z,7.15
2023-09-13T04:23:59.906Z,6.78
2023-09-13T04:26:26.540Z,7.50
2023-09-13T04:28:54.667Z,6.72
2023-09-13T04:31:21.481Z,7.28
2023-09-13T04:33:55.728Z,7.43
2023-09-13T04:36:22.430Z,6.65
2023-09-13T04:38:49.357Z,7.40
2023-09-13T04:41:17.401Z,6.45
2023-09-13T04:43:44.561Z,7.35
2023-09-13T04:46:12.037Z,7.65
2023-09-13T04:48:38.818Z,4.82
2023-09-13T04:51:06.004Z,5.18
2023-09-13T04:53:34.316Z,6.07
2023-09-13T04:56:02.019Z,6.38
2023-09-13T04:58:32.087Z,6.60
2023-09-13T05:01:00.132Z,4.22
2023-09-13T05:03:27.109Z,5.80
2023-09-13T05:05:55.704Z,5.30
2023-09-13T05:08:22.249Z,4.72
2023-09-13T05:10:48.988Z,5.72
2023-09-13T05:13:15.633Z,5.05
2023-09-13T05:15:43.694Z,4.50
2023-09-13T05:18:10.428Z,5.82
2023-09-13T05:20:37.548Z,7.60
2023-09-13T05:23:05.700Z,7.82
2023-09-13T05:25:32.378Z,7.72
2023-09-13T05:27:59.014Z,8.85
2023-09-13T05:30:26.384Z,8.18
2023-09-13T05:32:53.129Z,8.32
2023-09-13T05:35:19.830Z,9.00
2023-09-13T05:37:46.403Z,8.88
2023-09-13T05:40:13.133Z,9.52
2023-09-13T05:42:39.716Z,8.80
2023-09-13T05:45:06.795Z,8.65
2023-09-13T05:47:33.392Z,7.10
2023-09-13T05:49:59.949Z,8.27
2023-09-13T05:52:26.579Z,8.55
2023-09-13T05:54:53.225Z,9.77
2023-09-13T05:57:19.836Z,10.65
2023-09-13T05:59:46.463Z,7.45
2023-09-13T06:02:13.123Z,10.57
2023-09-13T06:04:39.762Z,9.60
2023-09-13T06:07:06.496Z,9.52
2023-09-13T06:09:33.042Z,9.75
2023-09-13T06:12:02.835Z,6.35
2023-09-13T06:14:29.654Z,9.80
2023-09-13T06:16:56.255Z,9.55
2023-09-13T06:19:23.035Z,9.55
2023-09-13T06:21:49.805Z,9.43
2023-09-13T06:24:16.462Z,9.23
2023-09-13T06:26:43.011Z,9.63
2023-09-13T06:29:11.334Z,9.48
2023-09-13T06:31:41.603Z,9.50
2023-09-13T06:34:22.938Z,9.82
2023-09-13T06:36:52.922Z,8.95
2023-09-13T06:39:20.038Z,9.63
2023-09-13T06:41:46.778Z,8.60
2023-09-13T06:44:13.694Z,8.23
2023-09-13T06:46:47.602Z,7.90
2023-09-13T06:49:18.021Z,8.00
2023-09-13T06:51:51.525Z,6.32
2023-09-13T06:54:21.609Z,8.25
2023-09-13T06:56:51.792Z,6.68
2023-09-13T06:59:21.839Z,6.70
2023-09-13T07:04:26.568Z,6.70
2023-09-13T07:06:58.562Z,6.60
2023-09-13T07:09:25.421Z,6.10
2023-09-13T07:11:52.156Z,5.53
2023-09-13T07:14:19.312Z,5.63
2023-09-13T07:16:46.047Z,5.78
2023-09-13T07:19:12.739Z,6.70
2023-09-13T07:21:39.338Z,6.22
2023-09-13T07:24:06.190Z,6.28
2023-09-13T07:26:32.796Z,5.90
2023-09-13T07:28:59.490Z,7.03
2023-09-13T07:31:26.196Z,6.20
2023-09-13T07:33:52.884Z,4.97
2023-09-13T07:36:19.508Z,4.82
2023-09-13T07:38:46.531Z,4.50
2023-09-13T07:41:14.247Z,3.97
2023-09-13T07:43:40.962Z,3.53
2023-09-13T07:46:07.615Z,3.30
2023-09-13T07:48:34.430Z,3.83
2023-09-13T07:51:01.108Z,3.40
2023-09-13T07:53:27.800Z,3.22
2023-09-13T07:55:54.467Z,2.83
2023-09-13T07:58:21.219Z,2.70
2023-09-13T08:00:48.264Z,3.50
2023-09-13T08:03:15.349Z,2.92
2023-09-13T08:05:43.679Z,2.70
2023-09-13T08:08:10.816Z,2.53
2023-09-13T08:10:37.820Z,2.47
2023-09-13T08:13:04.636Z,3.15
2023-09-13T08:15:43.476Z,2.53
2023-09-13T08:18:15.878Z,2.60
2023-09-13T08:20:42.933Z,2.95
2023-09-13T08:23:09.700Z,3.13
2023-09-13T08:25:36.605Z,3.50
2023-09-13T08:28:05.281Z,3.38
2023-09-13T08:30:32.071Z,3.53
2023-09-13T08:32:58.763Z,3.40
2023-09-13T08:35:25.404Z,3.30
2023-09-13T08:37:52.147Z,3.30
2023-09-13T08:40:18.877Z,3.53
2023-09-13T08:42:47.422Z,3.60
2023-09-13T08:45:14.357Z,4.13
2023-09-13T08:50:20.972Z,3.70
2023-09-13T08:52:48.780Z,3.05
2023-09-13T08:55:16.468Z,2.95
2023-09-13T08:57:43.557Z,2.33
2023-09-13T09:00:10.740Z,2.67
2023-09-13T09:02:38.875Z,2.90
2023-09-13T09:05:11.778Z,2.67
2023-09-13T09:07:40.842Z,2.30
2023-09-13T09:10:12.600Z,2.10
2023-09-13T09:12:49.938Z,2.20
2023-09-13T09:15:19.385Z,2.15
2023-09-13T09:17:50.700Z,2.15
2023-09-13T09:20:19.487Z,2.40
2023-09-13T09:22:46.154Z,2.15
2023-09-13T09:25:14.786Z,2.17
2023-09-13T09:27:42.357Z,2.13
2023-09-13T09:30:15.828Z,2.45
2023-09-13T09:32:45.190Z,1.75
2023-09-13T09:35:13.025Z,1.80
2023-09-13T09:37:39.696Z,1.88
2023-09-13T09:40:16.130Z,1.75
2023-09-13T09:42:42.902Z,1.50
2023-09-13T09:45:09.964Z,1.40
2023-09-13T09:47:42.389Z,1.63
2023-09-13T09:50:12.737Z,1.52
2023-09-13T09:52:39.609Z,1.52
2023-09-13T09:55:06.608Z,1.70
2023-09-13T09:57:34.179Z,1.90
2023-09-13T10:00:01.363Z,1.55
2023-09-13T10:02:29.194Z,1.80
2023-09-13T10:04:56.050Z,1.48
2023-09-13T10:07:22.693Z,1.55
2023-09-13T10:09:49.413Z,1.65
2023-09-13T10:12:16.547Z,1.35
2023-09-13T10:14:45.403Z,1.40
2023-09-13T10:17:13.099Z,1.38
2023-09-13T10:19:42.467Z,1.08
2023-09-13T10:22:09.883Z,1.20
2023-09-13T10:24:41.074Z,1.30
2023-09-13T10:27:08.964Z,1.60
2023-09-13T10:29:46.339Z,1.60
2023-09-13T10:32:16.362Z,1.30
2023-09-13T10:34:50.384Z,1.33
2023-09-13T10:37:35.563Z,1.20
2023-09-13T10:40:15.889Z,1.65
2023-09-13T10:42:43.781Z,1.25
2023-09-13T10:45:15.510Z,1.85
2023-09-13T10:50:10.039Z,1.52
2023-09-13T10:52:37.681Z,1.35
2023-09-13T10:55:08.216Z,1.30
2023-09-13T10:57:35.891Z,1.33
2023-09-13T11:00:10.089Z,1.50
2023-09-13T11:02:48.439Z,1.85
2023-09-13T11:05:17.297Z,2.63
2023-09-13T11:07:49.535Z,2.28
2023-09-13T11:10:20.687Z,2.30
2023-09-13T11:12:51.467Z,2.22
2023-09-13T11:15:26.353Z,2.40
2023-09-13T11:18:13.628Z,2.20
2023-09-13T11:20:41.516Z,1.80
2023-09-13T11:23:26.555Z,1.95
2023-09-13T11:26:10.811Z,1.98
2023-09-13T11:28:40.692Z,2.17
2023-09-13T11:31:12.270Z,2.40
2023-09-13T11:33:41.138Z,1.95
2023-09-13T11:36:09.352Z,2.05
2023-09-13T11:38:36.395Z,2.17
2023-09-13T11:41:03.001Z,1.90
2023-09-13T11:43:34.314Z,2.10
2023-09-13T11:46:01.895Z,2.30
2023-09-13T11:48:30.462Z,2.17
2023-09-13T11:51:15.905Z,2.28
2023-09-13T11:53:44.914Z,2.15
2023-09-13T11:56:50.136Z,2.20
2023-09-13T11:59:20.164Z,1.77
2023-09-13T12:01:53.043Z,1.92
2023-09-13T12:07:02.778Z,1.83
2023-09-13T12:09:31.990Z,1.67
2023-09-13T12:12:06.153Z,1.60
2023-09-13T12:14:56.722Z,1.90
2023-09-13T12:17:20.937Z,1.85
2023-09-13T12:19:48.773Z,1.40
2023-09-13T12:22:17.201Z,1.63
2023-09-13T12:24:52.705Z,1.60
2023-09-13T12:27:19.351Z,1.48
2023-09-13T12:29:48.023Z,1.40
2023-09-13T12:32:16.189Z,1.40
2023-09-13T12:34:43.392Z,1.50
2023-09-13T12:37:10.120Z,1.60
2023-09-13T12:39:36.750Z,1.67
2023-09-13T12:42:09.193Z,1.80
2023-09-13T12:44:38.513Z,1.45
2023-09-13T12:47:06.385Z,1.50
2023-09-13T12:49:38.235Z,2.00
2023-09-13T12:54:36.566Z,1.98
2023-09-13T12:57:06.427Z,1.50
2023-09-13T12:59:46.771Z,1.60
2023-09-13T13:02:19.381Z,1.48
2023-09-13T13:04:47.299Z,1.67
2023-09-13T13:07:23.237Z,1.50
2023-09-13T13:09:54.348Z,1.40
2023-09-13T13:12:21.069Z,1.50
2023-09-13T13:14:52.139Z,2.00
2023-09-13T13:17:19.204Z,1.60
2023-09-13T13:19:55.979Z,2.00
2023-09-13T13:22:25.302Z,2.20
2023-09-13T13:24:53.590Z,1.60
2023-09-13T13:27:20.580Z,1.65
2023-09-13T13:29:47.430Z,2.00
2023-09-13T13:32:14.086Z,1.52
2023-09-13T13:34:40.822Z,1.92
2023-09-13T13:37:07.576Z,1.83
2023-09-13T13:39:34.315Z,1.92
2023-09-13T13:42:01.075Z,1.50
2023-09-13T13:44:28.735Z,1.70
2023-09-13T13:46:55.272Z,1.88
2023-09-13T13:49:21.887Z,1.52
2023-09-13T13:51:51.881Z,1.60
2023-09-13T13:54:19.662Z,2.22
2023-09-13T13:56:47.560Z,1.70
2023-09-13T13:59:15.433Z,1.63
2023-09-13T14:01:42.557Z,1.58
2023-09-13T14:04:09.632Z,1.70
2023-09-13T14:06:36.735Z,1.65
2023-09-13T14:09:06.267Z,1.40
2023-09-13T14:11:34.440Z,1.50
2023-09-13T14:14:01.172Z,1.55
2023-09-13T14:16:27.816Z,1.60
2023-09-13T14:18:54.551Z,1.40
2023-09-13T14:21:21.262Z,1.50
2023-09-13T14:23:48.181Z,1.60
2023-09-13T14:26:14.905Z,1.50
2023-09-13T14:28:41.464Z,1.40
2023-09-13T14:31:13.635Z,1.95
2023-09-13T14:33:43.648Z,1.45
2023-09-13T14:36:11.157Z,1.10
2023-09-13T14:38:38.019Z,1.83
2023-09-13T14:41:04.629Z,1.65
2023-09-13T14:43:31.239Z,1.48
2023-09-13T14:45:57.952Z,1.70
2023-09-13T14:48:24.850Z,1.58
2023-09-13T14:50:51.577Z,1.40
2023-09-13T14:53:18.193Z,1.50
2023-09-13T14:55:46.428Z,1.50
2023-09-13T14:58:13.049Z,1.60
2023-09-13T15:00:39.626Z,1.58
2023-09-13T15:03:06.319Z,1.33
2023-09-13T15:05:32.963Z,1.58
2023-09-13T15:07:59.506Z,1.73
2023-09-13T15:10:30.307Z,1.80
2023-09-13T15:12:58.521Z,1.48
2023-09-13T15:15:25.352Z,1.50
2023-09-13T15:17:53.768Z,1.65
2023-09-13T15:20:20.608Z,1.20
2023-09-13T15:22:47.349Z,1.80
2023-09-13T15:25:13.998Z,1.70
2023-09-13T15:27:41.788Z,1.70
2023-09-13T15:30:09.688Z,1.58
2023-09-13T15:32:36.359Z,1.63
2023-09-13T15:35:04.386Z,2.03
2023-09-13T15:37:30.996Z,1.73
2023-09-13T15:40:08.881Z,1.67
2023-09-13T15:42:35.816Z,1.58
2023-09-13T15:45:03.415Z,1.88
2023-09-13T15:47:30.066Z,1.77
2023-09-13T15:49:56.691Z,2.05
2023-09-13T15:52:23.246Z,1.50
2023-09-13T15:54:49.917Z,1.63
2023-09-13T15:57:18.007Z,1.67
2023-09-13T15:59:44.604Z,1.80
2023-09-13T16:02:12.230Z,1.67
2023-09-13T16:04:40.497Z,1.50
2023-09-13T16:07:07.205Z,1.92
2023-09-13T16:09:33.799Z,1.65
2023-09-13T16:12:00.421Z,1.75
2023-09-13T16:14:33.139Z,1.58
2023-09-13T16:17:01.608Z,1.90
2023-09-13T16:19:29.187Z,1.92
2023-09-13T16:21:56.231Z,1.70
2023-09-13T16:24:22.941Z,1.80
2023-09-13T16:26:49.531Z,1.83
2023-09-13T16:29:16.176Z,2.15
2023-09-13T16:31:42.812Z,2.00
2023-09-13T16:34:09.572Z,2.17
2023-09-13T16:36:36.299Z,1.92
2023-09-13T16:39:03.706Z,1.80
2023-09-13T16:41:30.368Z,1.70
2023-09-13T16:43:57.223Z,2.25
2023-09-13T16:46:23.937Z,2.08
2023-09-13T16:48:51.236Z,1.80
2023-09-13T16:51:18.081Z,1.80
2023-09-13T16:53:44.611Z,2.00
2023-09-13T16:56:11.404Z,2.22
2023-09-13T16:58:37.996Z,2.00
2023-09-13T17:01:05.165Z,1.75
2023-09-13T17:03:31.957Z,1.70
2023-09-13T17:05:59.908Z,1.55
2023-09-13T17:08:26.493Z,2.13
2023-09-13T17:10:53.146Z,1.80
2023-09-13T17:13:24.260Z,1.73
2023-09-13T17:15:51.293Z,1.80
2023-09-13T17:18:18.261Z,1.63
2023-09-13T17:20:45.132Z,1.80
2023-09-13T17:23:11.942Z,1.65
2023-09-13T17:25:39.365Z,1.80
2023-09-13T17:28:06.295Z,1.55
2023-09-13T17:30:36.833Z,1.77
2023-09-13T17:33:03.936Z,1.70
2023-09-13T17:35:30.646Z,1.88
2023-09-13T17:37:57.830Z,1.70
2023-09-13T17:40:24.551Z,1.95
2023-09-13T17:42:51.229Z,1.60
2023-09-13T17:45:18.040Z,1.75
2023-09-13T17:47:46.465Z,1.70
2023-09-13T17:50:13.551Z,1.85
2023-09-13T17:52:40.792Z,1.73
2023-09-13T17:55:09.258Z,1.58
2023-09-13T17:57:40.164Z,1.75
2023-09-13T18:00:07.591Z,1.77
2023-09-13T18:02:34.370Z,1.85
2023-09-13T18:05:02.172Z,1.90
2023-09-13T18:07:31.850Z,1.70
2023-09-13T18:09:59.629Z,1.90
2023-09-13T18:12:26.935Z,1.75
2023-09-13T18:14:55.960Z,1.63
2023-09-13T18:17:22.519Z,1.70
2023-09-13T18:19:49.220Z,1.77
2023-09-13T18:22:15.988Z,1.55
2023-09-13T18:24:42.595Z,1.60
2023-09-13T18:27:10.356Z,1.98
2023-09-13T18:29:38.169Z,1.90
2023-09-13T18:32:05.468Z,1.30
2023-09-13T18:34:32.695Z,1.40
2023-09-13T18:36:59.654Z,1.88
2023-09-13T18:39:26.590Z,1.80
2023-09-13T18:41:53.333Z,1.85
2023-09-13T18:44:21.097Z,1.55
2023-09-13T18:46:47.869Z,1.80
2023-09-13T18:49:14.518Z,2.40
2023-09-13T18:51:42.953Z,2.20
2023-09-13T18:54:11.578Z,3.15
2023-09-13T18:56:38.219Z,2.10
2023-09-13T18:59:04.818Z,2.00
2023-09-13T19:01:31.696Z,2.30
2023-09-13T19:03:58.706Z,2.40
2023-09-13T19:06:25.628Z,2.72
2023-09-13T19:08:54.817Z,2.53
2023-09-13T19:11:25.174Z,2.50
2023-09-13T19:13:52.823Z,2.60
2023-09-13T19:16:19.583Z,2.20
2023-09-13T19:18:46.378Z,2.22
2023-09-13T19:21:18.508Z,2.20
2023-09-13T19:23:48.143Z,2.08
2023-09-13T19:26:16.075Z,2.40
2023-09-13T19:28:43.711Z,2.13
2023-09-13T19:31:10.740Z,2.10
2023-09-13T19:33:39.514Z,2.10
2023-09-13T19:36:08.292Z,2.17
2023-09-13T19:38:36.870Z,2.50
2023-09-13T19:41:04.853Z,2.00
2023-09-13T19:43:33.167Z,1.92
2023-09-13T19:46:02.197Z,2.40
2023-09-13T19:48:30.056Z,2.00
2023-09-13T19:51:11.712Z,2.03
2023-09-13T19:53:39.208Z,2.20
2023-09-13T19:56:07.879Z,2.08
2023-09-13T19:58:38.684Z,2.13
2023-09-13T20:01:10.898Z,1.83
2023-09-13T20:03:38.921Z,2.08
2023-09-13T20:06:13.635Z,2.10
2023-09-13T20:08:40.774Z,1.90
2023-09-13T20:11:07.580Z,2.30
2023-09-13T20:13:34.234Z,2.00
2023-09-13T20:16:00.930Z,2.28
2023-09-13T20:18:28.004Z,2.20
2023-09-13T20:20:57.873Z,2.20
2023-09-13T20:23:25.550Z,2.20
2023-09-13T20:25:56.885Z,2.17
2023-09-13T20:28:25.560Z,2.40
2023-09-13T20:30:52.332Z,2.13
2023-09-13T20:33:19.047Z,2.30
2023-09-13T20:35:46.583Z,2.50
2023-09-13T20:38:13.628Z,2.35
2023-09-13T20:40:40.342Z,2.33
2023-09-13T20:43:07.079Z,2.35
2023-09-13T20:45:33.761Z,1.90
2023-09-13T20:48:00.763Z,2.38
2023-09-13T20:50:27.846Z,2.22
2023-09-13T20:52:55.199Z,2.10
2023-09-13T20:55:23.083Z,2.17
2023-09-13T20:57:49.886Z,2.30
2023-09-13T21:00:16.686Z,2.05
2023-09-13T21:02:43.436Z,2.42
2023-09-13T21:05:10.090Z,2.13
2023-09-13T21:07:36.723Z,2.50
2023-09-13T21:10:03.766Z,2.70
2023-09-13T21:12:30.553Z,2.88
2023-09-13T21:14:57.892Z,2.50
2023-09-13T21:17:24.710Z,2.20
2023-09-13T21:19:52.664Z,2.55
2023-09-13T21:22:19.401Z,2.78
2023-09-13T21:24:48.227Z,2.70
2023-09-13T21:27:14.931Z,2.55
2023-09-13T21:29:41.666Z,2.85
2023-09-13T21:32:08.843Z,2.55
2023-09-13T21:34:46.712Z,2.80
2023-09-13T21:39:44.294Z,2.60
2023-09-13T21:42:12.358Z,2.53
2023-09-13T21:44:38.953Z,2.58
2023-09-13T21:47:05.637Z,2.80
2023-09-13T21:49:32.202Z,2.53
2023-09-13T21:51:58.850Z,3.20
2023-09-13T21:54:25.623Z,2.92
2023-09-13T21:56:52.295Z,2.80
2023-09-13T21:59:18.921Z,2.97
2023-09-13T22:01:45.571Z,3.55
2023-09-13T22:04:12.436Z,3.13
2023-09-13T22:06:39.223Z,2.92
2023-09-13T22:09:07.103Z,2.72
2023-09-13T22:11:33.698Z,2.63
2023-09-13T22:14:00.838Z,3.40
2023-09-13T22:16:29.097Z,3.13
2023-09-13T22:18:56.238Z,3.10
2023-09-13T22:21:23.755Z,2.72
2023-09-13T22:23:50.385Z,2.90
2023-09-13T22:26:18.353Z,3.50
2023-09-13T22:28:45.570Z,3.28
2023-09-13T22:31:17.055Z,4.03
2023-09-13T22:33:43.872Z,3.67
2023-09-13T22:36:11.644Z,3.63
2023-09-13T22:38:38.629Z,3.65
2023-09-13T22:41:07.542Z,4.70
2023-09-13T22:43:34.429Z,5.68
2023-09-13T22:46:08.778Z,5.53
2023-09-13T22:48:35.977Z,5.30
2023-09-13T22:51:02.654Z,6.07
2023-09-13T22:53:29.309Z,5.72
2023-09-13T22:55:55.994Z,6.55
2023-09-13T22:58:22.679Z,5.95
2023-09-13T23:00:49.457Z,5.85
2023-09-13T23:03:21.782Z,5.50
2023-09-13T23:06:00.434Z,5.10
2023-09-13T23:08:27.048Z,5.50
2023-09-13T23:11:00.694Z,7.15
2023-09-13T23:13:27.293Z,7.28
2023-09-13T23:16:03.901Z,7.50
2023-09-13T23:18:32.174Z,7.40
2023-09-13T23:20:59.287Z,7.88
2023-09-13T23:23:26.454Z,7.85
2023-09-13T23:26:00.225Z,8.43
2023-09-13T23:28:26.872Z,9.30
2023-09-13T23:31:04.991Z,8.02
2023-09-13T23:33:31.835Z,10.52
2023-09-13T23:35:58.414Z,9.52
2023-09-13T23:38:25.505Z,8.95
2023-09-13T23:40:52.212Z,9.43
2023-09-13T23:43:18.935Z,9.20
2023-09-13T23:45:46.950Z,9.07
2023-09-13T23:48:14.276Z,9.75
2023-09-13T23:50:41.072Z,11.27
2023-09-13T23:53:07.634Z,10.15
2023-09-13T23:55:34.228Z,9.48
2023-09-13T23:58:00.837Z,10.98
